Stanford, Illinois
Current Conditions -  °F | °C
As of 6:56 AM on Tuesday 21 Oct 2014 (Local Time) from KBMI Reporting Station
Clear Clear  
Wind Chill: 39°   Ceiling: Unl
Heat Index: 43°   Visibility: 10mi
Dew Point: 40°   Wind: 6mph
Humidity: 89%   Direction: 350°N
Pressure: 30.11"   Gusts: NA
Location:  40.43°N, 89.22°W
Report Text: KBMI 211156Z 35005KT 10SM CLR 06/04 A3011 RMK AO2 51020 T00610044 10083 20061 SLP199
Loading
Personal Weather Stations






























Interactive Weather Map
Tropical Storm Tracking
New forecast layout! Learn more

10-Day Weather Forecast

Advertisements
Track Severe Weather on mobile